801X ZSOF-ZSLG
Flight info
| Callsign | 801X |
|---|---|
| Flight time | N/A |
| Altitude | 35100 |
| Route | OF W178 RUXEL |
| Aircraft | F15/L-SDGRWY/L |
Departure
| Time | 2026-04-26 13:10 |
|---|---|
| Airport | Hefei Xinqiao International Airport (ZSOF) |
Arrival
| Time | N/A |
|---|---|
| Airport | Lianyungang Huaguoshan International Airport (ZSLG) |
| Time | Latitude | Longitude | Altitude | Speed | Heading |
|---|---|---|---|---|---|
| 2026-04-26 13:06 | 31.98820 | 116.97201 | 215 ft | 0 kts | 240° |
| 2026-04-26 13:07 | 31.98816 | 116.97192 | 215 ft | 3 kts | 265° |
| 2026-04-26 13:07 | 31.98875 | 116.97201 | 215 ft | 18 kts | 36° |
| 2026-04-26 13:07 | 31.99017 | 116.97293 | 215 ft | 19 kts | 31° |
| 2026-04-26 13:08 | 31.99035 | 116.97345 | 215 ft | 0 kts | 103° |
| 2026-04-26 13:09 | 31.99022 | 116.97385 | 215 ft | 12 kts | 110° |
| 2026-04-26 13:09 | 31.98952 | 116.97527 | 215 ft | 27 kts | 123° |
| 2026-04-26 13:09 | 31.98783 | 116.97697 | 215 ft | 43 kts | 149° |
| 2026-04-26 13:09 | 31.97884 | 116.98280 | 401 ft | 242 kts | 152° |
| 2026-04-26 13:10 | 31.95989 | 116.99371 | 2144 ft | 379 kts | 155° |
| 2026-04-26 13:10 | 31.93189 | 117.00925 | 4372 ft | 515 kts | 149° |
| 2026-04-26 13:10 | 31.90026 | 117.03548 | 7106 ft | 627 kts | 145° |
| 2026-04-26 13:10 | 31.86355 | 117.06561 | 9630 ft | 659 kts | 147° |
| 2026-04-26 13:11 | 31.82438 | 117.09270 | 11321 ft | 658 kts | 155° |
| 2026-04-26 13:11 | 31.78153 | 117.10844 | 13834 ft | 649 kts | 179° |
| 2026-04-26 13:11 | 31.73847 | 117.10217 | 17660 ft | 639 kts | 198° |
| 2026-04-26 13:11 | 31.69754 | 117.08406 | 20390 ft | 629 kts | 206° |
| 2026-04-26 13:12 | 31.65705 | 117.06576 | 21281 ft | 632 kts | 201° |
| 2026-04-26 13:12 | 31.61392 | 117.05623 | 22425 ft | 638 kts | 191° |
| 2026-04-26 13:12 | 31.57013 | 117.05112 | 23931 ft | 633 kts | 189° |
| 2026-04-26 13:12 | 31.52657 | 117.04672 | 26076 ft | 626 kts | 190° |
| 2026-04-26 13:13 | 31.48388 | 117.04175 | 28102 ft | 619 kts | 191° |
| 2026-04-26 13:13 | 31.44220 | 117.03648 | 31516 ft | 605 kts | 195° |
| 2026-04-26 13:13 | 31.40369 | 117.02252 | 33205 ft | 574 kts | 217° |
| 2026-04-26 13:13 | 31.37318 | 116.99390 | 33818 ft | 552 kts | 233° |
| 2026-04-26 13:14 | 31.35299 | 116.95795 | 34121 ft | 528 kts | 256° |
| 2026-04-26 13:14 | 31.34559 | 116.91676 | 34684 ft | 511 kts | 273° |
| 2026-04-26 13:14 | 31.34976 | 116.87646 | 35411 ft | 499 kts | 297° |
| 2026-04-26 13:14 | 31.36050 | 116.85953 | 35165 ft | 508 kts | 316° |
| 2026-04-26 13:15 | 31.37574 | 116.85011 | 35221 ft | 524 kts | 344° |
| 2026-04-26 13:15 | 31.41342 | 116.85283 | 34232 ft | 558 kts | 9° |
| 2026-04-26 13:15 | 31.44917 | 116.86736 | 36242 ft | 548 kts | 24° |
| 2026-04-26 13:15 | 31.47019 | 116.88415 | 37470 ft | 558 kts | 31° |
| 2026-04-26 13:16 | 31.50822 | 116.92790 | 37584 ft | 591 kts | 46° |
| 2026-04-26 13:16 | 31.53165 | 116.96809 | 37825 ft | 606 kts | 55° |
| 2026-04-26 13:16 | 31.55066 | 117.01235 | 38130 ft | 618 kts | 59° |
| 2026-04-26 13:16 | 31.56781 | 117.05895 | 37892 ft | 636 kts | 64° |
| 2026-04-26 13:17 | 31.59788 | 117.15788 | 38186 ft | 646 kts | 67° |
| 2026-04-26 13:17 | 31.61131 | 117.20802 | 38060 ft | 656 kts | 69° |
| 2026-04-26 13:18 | 31.63486 | 117.31194 | 37939 ft | 668 kts | 72° |
| 2026-04-26 13:18 | 31.64531 | 117.36560 | 37741 ft | 674 kts | 72° |
| 2026-04-26 13:18 | 31.66448 | 117.47353 | 37512 ft | 680 kts | 75° |
| 2026-04-26 13:19 | 31.67254 | 117.52813 | 37447 ft | 683 kts | 77° |
| 2026-04-26 13:19 | 31.69748 | 117.74969 | 37187 ft | 686 kts | 79° |
| 2026-04-26 13:19 | 31.70386 | 117.80496 | 36998 ft | 679 kts | 79° |
| 2026-04-26 13:20 | 31.70985 | 117.91465 | 36859 ft | 686 kts | 85° |
| 2026-04-26 13:20 | 31.71117 | 117.97092 | 36671 ft | 688 kts | 84° |
| 2026-04-26 13:20 | 31.71416 | 118.02677 | 36739 ft | 687 kts | 82° |
| 2026-04-26 13:21 | 31.72702 | 118.13702 | 36619 ft | 683 kts | 73° |
| 2026-04-26 13:21 | 31.73538 | 118.17209 | 36981 ft | 669 kts | 66° |
| 2026-04-26 13:21 | 31.76191 | 118.23708 | 37028 ft | 665 kts | 58° |
| 2026-04-26 13:21 | 31.78296 | 118.28444 | 36965 ft | 646 kts | 57° |
| 2026-04-26 13:22 | 31.80283 | 118.33047 | 36916 ft | 616 kts | 59° |
| 2026-04-26 13:22 | 31.82035 | 118.37464 | 36912 ft | 587 kts | 60° |
| 2026-04-26 13:22 | 31.83743 | 118.41788 | 36913 ft | 592 kts | 60° |
| 2026-04-26 13:22 | 31.86463 | 118.48586 | 37081 ft | 568 kts | 57° |
| 2026-04-26 13:23 | 31.88070 | 118.52686 | 36793 ft | 537 kts | 64° |
| 2026-04-26 13:23 | 31.89352 | 118.56611 | 36567 ft | 496 kts | 63° |
| 2026-04-26 13:23 | 31.90530 | 118.60307 | 35614 ft | 472 kts | 64° |
| 2026-04-26 13:23 | 31.91703 | 118.63596 | 36125 ft | 404 kts | 55° |
| 2026-04-26 13:24 | 31.92988 | 118.66314 | 36345 ft | 363 kts | 56° |
| 2026-04-26 13:24 | 31.93973 | 118.68969 | 35952 ft | 344 kts | 63° |
| 2026-04-26 13:24 | 31.94730 | 118.71506 | 35884 ft | 314 kts | 61° |
| 2026-04-26 13:24 | 31.95398 | 118.73865 | 35621 ft | 299 kts | 64° |
| 2026-04-26 13:25 | 31.96048 | 118.76209 | 35036 ft | 315 kts | 60° |
| 2026-04-26 13:25 | 31.96987 | 118.78608 | 34929 ft | 334 kts | 51° |
| 2026-04-26 13:25 | 32.02497 | 118.87215 | 36847 ft | 353 kts | 27° |
| 2026-04-26 13:25 | 32.06308 | 118.89453 | 37264 ft | 373 kts | 359° |
| 2026-04-26 13:26 | 32.09089 | 118.89703 | 36912 ft | 438 kts | 358° |
| 2026-04-26 13:26 | 32.12357 | 118.89833 | 37291 ft | 474 kts | 354° |
| 2026-04-26 13:26 | 32.15443 | 118.89304 | 37421 ft | 431 kts | 340° |
| 2026-04-26 13:26 | 32.18220 | 118.87862 | 37250 ft | 453 kts | 329° |
| 2026-04-26 13:27 | 32.20751 | 118.85777 | 37516 ft | 431 kts | 319° |